createdAt,value
2019-01-15T00:01:51.053Z,99849.28
2019-01-15T00:06:56.435Z,99865.34
2019-01-15T00:12:07.849Z,99878.33
2019-01-15T00:17:09.013Z,99880.33
2019-01-15T00:22:14.196Z,99882.70
2019-01-15T00:27:19.349Z,99877.27
2019-01-15T00:32:25.726Z,99891.95
2019-01-15T00:37:31.144Z,99887.27
2019-01-15T00:42:36.205Z,99908.74
2019-01-15T00:47:41.607Z,99882.88
2019-01-15T00:52:46.581Z,99898.55
2019-01-15T00:57:51.594Z,99897.20
2019-01-15T01:02:56.603Z,99899.05
2019-01-15T01:08:01.862Z,99905.88
2019-01-15T01:13:07.078Z,99919.91
2019-01-15T01:18:12.369Z,99921.17
2019-01-15T01:23:17.477Z,99928.48
2019-01-15T01:28:22.512Z,99932.81
2019-01-15T01:33:27.521Z,99933.20
2019-01-15T01:38:32.584Z,99918.69
2019-01-15T01:43:37.629Z,99935.37
2019-01-15T01:48:42.660Z,99941.73
2019-01-15T01:53:47.635Z,99942.17
2019-01-15T01:58:52.650Z,99931.20
2019-01-15T02:03:57.707Z,99932.91
2019-01-15T02:09:03.329Z,99947.41
2019-01-15T02:14:09.352Z,99951.88
2019-01-15T02:19:22.293Z,99952.84
2019-01-15T02:24:27.671Z,99948.08
2019-01-15T02:29:32.686Z,99955.13
2019-01-15T02:34:37.760Z,99958.66
2019-01-15T02:39:42.838Z,99953.08
2019-01-15T02:44:48.977Z,99950.13
2019-01-15T02:49:54.028Z,99955.41
2019-01-15T02:54:59.137Z,99960.60
2019-01-15T03:00:05.855Z,99946.67
2019-01-15T03:05:11.425Z,99951.33
2019-01-15T03:10:17.912Z,99955.41
2019-01-15T03:15:24.225Z,99956.44
2019-01-15T03:20:30.474Z,99965.16
2019-01-15T03:25:35.495Z,99960.47
2019-01-15T03:30:40.502Z,99970.02
2019-01-15T03:35:45.518Z,99974.77
2019-01-15T03:40:50.707Z,99974.86
2019-01-15T03:46:03.965Z,99984.19
2019-01-15T03:51:03.378Z,99975.22
2019-01-15T03:56:08.458Z,99976.42
2019-01-15T04:01:13.454Z,99975.46
2019-01-15T04:06:18.495Z,99990.50
2019-01-15T04:11:23.656Z,99983.66
2019-01-15T04:16:28.697Z,99993.13
2019-01-15T04:21:33.798Z,100006.27
2019-01-15T04:26:40.821Z,100004.62
2019-01-15T04:31:45.776Z,100003.70
2019-01-15T04:36:50.796Z,100009.59
2019-01-15T04:41:55.838Z,99996.62
2019-01-15T04:47:01.265Z,99998.50
2019-01-15T04:52:07.013Z,99990.30
2019-01-15T04:57:12.169Z,99989.28
2019-01-15T05:02:17.296Z,99994.28
2019-01-15T05:07:22.310Z,99996.53
2019-01-15T05:12:27.414Z,100003.46
2019-01-15T05:17:32.557Z,100010.99
2019-01-15T05:22:37.644Z,100006.13
2019-01-15T05:27:42.695Z,100001.95
2019-01-15T05:32:47.769Z,100009.04
2019-01-15T05:37:53.068Z,100012.64
2019-01-15T05:42:58.181Z,100009.82
2019-01-15T05:48:09.149Z,100013.31
2019-01-15T05:53:14.570Z,100007.73
2019-01-15T05:58:19.698Z,100010.84
2019-01-15T06:03:24.766Z,100006.47
2019-01-15T06:08:30.111Z,100012.69
2019-01-15T06:13:35.155Z,99998.03
2019-01-15T06:18:40.161Z,99989.38
2019-01-15T06:23:45.550Z,99979.22
2019-01-15T06:28:51.152Z,99979.44
2019-01-15T06:34:03.379Z,99992.78
2019-01-15T06:39:10.210Z,99995.41
2019-01-15T06:44:16.124Z,99990.02
2019-01-15T06:49:26.689Z,100008.61
2019-01-15T06:54:34.041Z,100011.61
2019-01-15T06:59:45.552Z,100015.50
2019-01-15T07:04:50.703Z,100006.70
2019-01-15T07:09:56.024Z,99997.43
2019-01-15T07:15:01.599Z,100017.09
2019-01-15T07:20:15.443Z,100022.38
2019-01-15T07:25:21.258Z,100030.65
2019-01-15T07:30:42.029Z,100042.05
2019-01-15T07:35:47.435Z,100037.96
2019-01-15T07:40:52.796Z,100031.36
2019-01-15T07:45:58.090Z,100033.00
2019-01-15T07:51:03.798Z,100037.03
2019-01-15T07:56:08.916Z,100037.41
2019-01-15T08:01:19.626Z,100048.92
2019-01-15T08:06:31.646Z,100054.17
2019-01-15T08:12:10.400Z,100049.12
2019-01-15T08:17:17.376Z,100053.45
2019-01-15T08:22:22.920Z,100044.59
2019-01-15T08:27:28.064Z,100020.73
2019-01-15T08:32:33.242Z,100013.44
2019-01-15T08:37:38.336Z,100009.42
2019-01-15T08:42:43.531Z,99984.70
2019-01-15T08:47:53.471Z,99986.41
2019-01-15T08:52:58.760Z,99983.63
2019-01-15T08:58:03.887Z,99975.70
2019-01-15T09:03:09.293Z,99978.22
2019-01-15T09:08:15.933Z,99988.75
2019-01-15T09:13:21.135Z,99991.74
2019-01-15T09:18:26.397Z,99981.05
2019-01-15T09:23:34.391Z,99981.20
2019-01-15T09:28:39.421Z,99984.77
2019-01-15T09:33:44.896Z,99997.90
2019-01-15T09:38:50.096Z,99971.29
2019-01-15T09:43:55.374Z,99959.41
2019-01-15T09:49:02.819Z,99958.00
2019-01-15T09:54:10.294Z,99949.89
2019-01-15T09:59:15.384Z,99936.66
2019-01-15T10:04:20.476Z,99946.28
2019-01-15T10:09:25.654Z,99924.95
2019-01-15T10:14:40.995Z,99937.97
2019-01-15T10:19:41.742Z,99925.09
2019-01-15T10:24:47.655Z,99922.55
2019-01-15T10:29:59.201Z,99916.83
2019-01-15T10:35:06.795Z,99916.90
2019-01-15T10:40:13.814Z,99907.78
2019-01-15T10:45:18.922Z,99911.31
2019-01-15T10:50:25.286Z,99891.69
2019-01-15T10:55:30.614Z,99883.37
2019-01-15T11:00:35.849Z,99886.09
2019-01-15T11:05:46.022Z,99888.36
2019-01-15T11:10:51.376Z,99875.28
2019-01-15T11:16:11.980Z,99883.47
2019-01-15T11:21:17.560Z,99881.98
2019-01-15T11:26:24.407Z,99870.94
2019-01-15T11:31:29.797Z,99871.97
2019-01-15T11:36:35.007Z,99856.53
2019-01-15T11:41:52.550Z,99862.30
2019-01-15T11:46:58.073Z,99855.45
2019-01-15T11:52:03.639Z,99864.09
2019-01-15T11:57:08.752Z,99853.88
2019-01-15T12:02:32.080Z,99840.03
2019-01-15T12:07:56.547Z,99840.51
2019-01-15T12:13:27.852Z,99838.25
2019-01-15T12:18:54.486Z,99827.25
2019-01-15T12:24:23.970Z,99828.58
2019-01-15T12:29:53.186Z,99812.30
2019-01-15T12:35:25.140Z,99816.02
2019-01-15T12:40:44.125Z,99806.53
2019-01-15T12:46:08.808Z,99804.14
2019-01-15T12:51:34.483Z,99809.46
2019-01-15T12:57:05.518Z,99798.77
2019-01-15T13:02:31.432Z,99798.21
2019-01-15T13:07:55.964Z,99791.42
2019-01-15T13:13:21.095Z,99790.89
2019-01-15T13:18:44.112Z,99792.78
2019-01-15T13:24:12.371Z,99795.42
2019-01-15T13:29:45.451Z,99797.52
2019-01-15T13:35:09.573Z,99797.31
2019-01-15T13:40:30.955Z,99799.41
2019-01-15T13:46:08.377Z,99792.89
2019-01-15T13:51:45.788Z,99781.88
2019-01-15T13:57:28.127Z,99775.08
2019-01-15T14:02:58.416Z,99763.53
2019-01-15T14:08:38.032Z,99762.22
2019-01-15T14:14:00.807Z,99754.57
2019-01-15T14:19:23.917Z,99748.28
2019-01-15T14:24:58.295Z,99739.34
2019-01-15T14:30:23.407Z,99731.95
2019-01-15T14:35:58.576Z,99733.02
2019-01-15T14:41:45.502Z,99730.69
2019-01-15T14:47:25.235Z,99723.28
2019-01-15T14:53:10.385Z,99727.25
2019-01-15T14:58:40.526Z,99715.12
2019-01-15T15:04:16.108Z,99724.89
2019-01-15T15:09:39.182Z,99737.53
2019-01-15T15:15:05.842Z,99732.83
2019-01-15T15:20:43.112Z,99716.50
2019-01-15T15:26:10.349Z,99700.97
2019-01-15T15:31:36.906Z,99715.71
2019-01-15T15:36:54.766Z,99709.68
2019-01-15T15:42:13.796Z,99714.41
2019-01-15T15:47:42.058Z,99705.47
2019-01-15T15:53:11.009Z,99691.48
2019-01-15T15:58:47.298Z,99705.75
2019-01-15T16:04:14.515Z,99707.62
2019-01-15T16:09:59.762Z,99706.84
2019-01-15T16:15:14.124Z,99704.92
2019-01-15T16:20:46.513Z,99703.41
2019-01-15T16:26:09.935Z,99699.99
2019-01-15T16:31:46.534Z,99691.05
2019-01-15T16:37:25.653Z,99690.23
2019-01-15T16:42:50.610Z,99692.12
2019-01-15T16:48:14.647Z,99693.95
2019-01-15T16:53:39.382Z,99703.16
2019-01-15T16:59:02.762Z,99701.86
2019-01-15T17:04:27.487Z,99696.09
2019-01-15T17:09:55.740Z,99683.70
2019-01-15T17:15:25.981Z,99693.97
2019-01-15T17:20:57.780Z,99684.52
2019-01-15T17:26:14.457Z,99683.44
2019-01-15T17:31:38.595Z,99676.07
2019-01-15T17:36:56.598Z,99682.92
2019-01-15T17:42:18.358Z,99678.98
2019-01-15T17:47:41.705Z,99672.12
2019-01-15T17:53:09.290Z,99675.81
2019-01-15T17:58:24.581Z,99681.35
2019-01-15T18:03:53.681Z,99683.45
2019-01-15T18:09:26.200Z,99680.58
2019-01-15T18:15:02.553Z,99682.13
2019-01-15T18:20:25.617Z,99689.77
2019-01-15T18:26:08.078Z,99677.91
2019-01-15T18:31:30.828Z,99677.91
2019-01-15T18:37:03.808Z,99675.04
2019-01-15T18:42:35.768Z,99682.41
2019-01-15T18:47:59.370Z,99673.45
2019-01-15T18:59:04.316Z,99665.53
2019-01-15T19:04:27.363Z,99671.59
2019-01-15T19:09:56.918Z,99659.22
2019-01-15T19:15:34.202Z,99663.95
2019-01-15T19:21:05.138Z,99648.66
2019-01-15T19:26:37.751Z,99659.99
2019-01-15T19:32:37.976Z,99664.48
2019-01-15T19:38:20.691Z,99670.80
2019-01-15T19:43:47.624Z,99677.12
2019-01-15T19:49:20.378Z,99666.30
2019-01-15T19:54:54.722Z,99675.02
2019-01-15T20:00:19.261Z,99675.80
2019-01-15T20:05:42.240Z,99665.25
2019-01-15T20:11:12.809Z,99676.85
2019-01-15T20:17:02.089Z,99681.86
2019-01-15T20:22:39.167Z,99689.27
2019-01-15T20:28:16.094Z,99693.45
2019-01-15T20:33:47.073Z,99697.17
2019-01-15T20:39:16.415Z,99702.45
2019-01-15T20:44:41.221Z,99696.63
2019-01-15T20:50:08.294Z,99700.32
2019-01-15T20:55:35.490Z,99706.13
2019-01-15T21:01:14.485Z,99712.45
2019-01-15T21:06:37.724Z,99710.08
2019-01-15T21:12:11.606Z,99710.86
2019-01-15T21:17:39.550Z,99714.05
2019-01-15T21:23:09.905Z,99719.83
2019-01-15T21:28:37.356Z,99705.09
2019-01-15T21:34:02.482Z,99707.18
2019-01-15T21:39:32.887Z,99722.47
2019-01-15T21:44:56.663Z,99713.78
2019-01-15T21:50:21.532Z,99706.91
2019-01-15T21:55:57.807Z,99716.41
2019-01-15T22:01:30.750Z,99723.00
2019-01-15T22:06:55.184Z,99717.46
2019-01-15T22:12:18.218Z,99704.55
2019-01-15T22:17:36.882Z,99709.82
2019-01-15T22:23:01.206Z,99727.23
2019-01-15T22:28:31.110Z,99710.09
2019-01-15T22:33:58.122Z,99687.14
2019-01-15T22:39:14.983Z,99702.45
2019-01-15T22:44:44.136Z,99702.45
2019-01-15T22:50:26.193Z,99702.72
2019-01-15T22:56:02.758Z,99691.91
2019-01-15T23:01:24.965Z,99698.22
2019-01-15T23:06:48.084Z,99687.41
2019-01-15T23:12:05.647Z,99693.99
2019-01-15T23:17:28.720Z,99706.91
2019-01-15T23:23:08.073Z,99700.59
2019-01-15T23:28:31.044Z,99698.48
2019-01-15T23:33:54.929Z,99686.86
2019-01-15T23:39:24.761Z,99681.84
2019-01-15T23:50:35.749Z,99676.84
2019-01-15T23:55:59.772Z,99689.48
